Time;durP1;ratioP1;P1;durP2;ratioP2;P2;SDS_P1;SDS_P2;PMS_P1;PMS_P2;Temp;Humidity;BMP_temperature;BMP_pressure;BME280_temperature;BME280_humidity;BME280_pressure;Samples;Min_cycle;Max_cycle;Signal;HPM_P1;HPM_P2
2022/11/01 00:01:57;;;;;;;12.75;7.50;;;17.00;86.10;;;;;;5021950;28;20076;-75
2022/11/01 00:04:22;;;;;;;15.93;7.53;;;17.00;85.90;;;;;;5020078;28;20073;-75
2022/11/01 00:06:49;;;;;;;14.32;7.32;;;17.00;85.80;;;;;;5015584;28;20363;-76
2022/11/01 00:09:15;;;;;;;16.08;7.15;;;17.00;85.70;;;;;;5019381;28;20048;-75
2022/11/01 00:11:41;;;;;;;13.55;7.45;;;17.00;85.60;;;;;;5017912;28;20315;-76
2022/11/01 00:14:07;;;;;;;13.57;7.55;;;17.10;85.50;;;;;;5015081;28;20041;-75
2022/11/01 00:16:33;;;;;;;15.40;7.32;;;17.10;85.40;;;;;;5011626;28;20038;-75
2022/11/01 00:18:58;;;;;;;16.42;7.15;;;17.10;85.30;;;;;;5012227;28;20057;-75
2022/11/01 00:21:24;;;;;;;12.55;7.30;;;17.10;85.40;;;;;;5019065;28;20041;-74
2022/11/01 00:23:50;;;;;;;13.52;7.47;;;17.10;85.40;;;;;;5013582;28;20172;-75
2022/11/01 00:26:21;;;;;;;12.70;7.10;;;17.10;85.30;;;;;;5019900;28;20445;-75
2022/11/01 00:28:47;;;;;;;15.00;7.47;;;17.10;84.90;;;;;;5018913;28;20053;-74
2022/11/01 00:31:14;;;;;;;13.07;6.32;;;17.20;84.70;;;;;;5018602;28;20044;-77
2022/11/01 00:33:40;;;;;;;12.98;6.82;;;17.20;84.30;;;;;;5018319;28;20172;-75
2022/11/01 00:36:06;;;;;;;12.80;6.50;;;17.20;84.20;;;;;;5021149;28;20026;-75
2022/11/01 00:38:32;;;;;;;11.50;5.88;;;17.20;83.90;;;;;;5013560;28;20426;-75
2022/11/01 00:40:58;;;;;;;11.48;6.30;;;17.20;83.80;;;;;;5008991;28;20052;-75
2022/11/01 00:43:24;;;;;;;12.43;6.20;;;17.20;83.70;;;;;;5016773;28;20034;-74
2022/11/01 00:45:50;;;;;;;10.88;5.47;;;17.10;83.60;;;;;;5015980;28;20036;-76
2022/11/01 00:48:16;;;;;;;9.27;4.88;;;17.10;83.10;;;;;;5014259;28;20037;-75
2022/11/01 00:50:41;;;;;;;11.68;5.55;;;17.00;82.50;;;;;;5017311;28;20255;-74
2022/11/01 00:53:09;;;;;;;12.80;4.78;;;17.00;82.30;;;;;;5011169;28;20385;-75
2022/11/01 00:55:35;;;;;;;10.07;4.63;;;17.00;81.70;;;;;;5020547;28;20053;-75
2022/11/01 00:58:01;;;;;;;10.00;3.92;;;16.90;81.10;;;;;;5020457;28;20044;-75
2022/11/01 01:00:26;;;;;;;7.53;3.40;;;16.90;80.00;;;;;;5021745;28;20056;-74
2022/11/01 01:02:52;;;;;;;8.07;2.55;;;16.80;79.00;;;;;;5012040;28;20045;-75
2022/11/01 01:05:18;;;;;;;5.28;2.05;;;16.80;75.80;;;;;;5020470;28;20160;-76
2022/11/01 01:07:43;;;;;;;2.47;1.48;;;16.70;74.40;;;;;;5018508;28;20072;-75
2022/11/01 01:10:09;;;;;;;5.28;1.70;;;16.60;73.60;;;;;;5017971;28;20090;-75
2022/11/01 01:12:34;;;;;;;2.42;1.30;;;16.60;73.50;;;;;;5017579;28;20354;-77
2022/11/01 01:15:00;;;;;;;3.67;1.30;;;16.50;73.50;;;;;;5021651;28;20060;-75
2022/11/01 01:17:26;;;;;;;3.03;1.60;;;16.40;73.70;;;;;;5016509;28;20037;-75
2022/11/01 01:19:52;;;;;;;3.95;1.33;;;16.30;73.60;;;;;;5021156;28;20045;-75
2022/11/01 01:22:17;;;;;;;3.03;1.48;;;16.30;74.10;;;;;;5016542;28;20077;-75
2022/11/01 01:24:46;;;;;;;3.95;1.85;;;16.20;74.30;;;;;;5017262;28;20053;-75
2022/11/01 01:27:13;;;;;;;3.35;1.58;;;16.20;74.30;;;;;;5013989;28;20033;-74
2022/11/01 01:29:43;;;;;;;2.70;1.35;;;16.20;74.60;;;;;;5021283;28;20037;-75
2022/11/01 01:32:15;;;;;;;4.63;1.60;;;16.10;75.00;;;;;;5018160;28;20045;-75
2022/11/01 01:34:41;;;;;;;5.00;1.77;;;16.10;74.80;;;;;;5022408;28;20409;-75
2022/11/01 01:37:08;;;;;;;3.28;1.65;;;16.10;74.80;;;;;;5020773;28;20029;-75
2022/11/01 01:39:34;;;;;;;5.75;1.65;;;16.10;74.60;;;;;;5020865;28;20068;-75
2022/11/01 01:42:10;;;;;;;7.35;1.92;;;16.10;74.50;;;;;;5021276;28;20049;-74
2022/11/01 01:44:50;;;;;;;5.13;1.80;;;16.00;74.80;;;;;;5022133;28;20032;-75
2022/11/01 01:47:37;;;;;;;3.38;1.50;;;16.00;73.90;;;;;;5021390;28;20037;-74
2022/11/01 01:50:23;;;;;;;6.03;1.60;;;16.00;73.70;;;;;;5018857;28;20056;-75
2022/11/01 01:53:09;;;;;;;7.82;1.30;;;15.90;73.90;;;;;;5014836;28;20042;-75
2022/11/01 01:55:46;;;;;;;5.22;1.40;;;15.90;73.90;;;;;;5019457;28;20041;-75
2022/11/01 01:58:15;;;;;;;5.97;1.17;;;15.80;73.70;;;;;;5025142;28;20057;-75
2022/11/01 02:00:43;;;;;;;3.50;1.40;;;15.90;73.10;;;;;;5017803;28;20030;-75
2022/11/01 02:03:08;;;;;;;3.65;1.50;;;15.80;73.50;;;;;;5017764;28;20056;-76
2022/11/01 02:05:53;;;;;;;5.10;1.50;;;15.80;74.80;;;;;;5016811;28;20525;-75
2022/11/01 02:08:26;;;;;;;4.75;1.55;;;15.70;73.50;;;;;;5019408;28;20087;-75
2022/11/01 02:10:55;;;;;;;5.88;1.38;;;15.60;72.30;;;;;;5020397;28;20120;-75
2022/11/01 02:13:20;;;;;;;8.05;1.52;;;15.60;72.10;;;;;;5022528;28;20034;-74
2022/11/01 02:16:24;;;;;;;6.65;1.42;;;15.60;72.30;;;;;;5016520;28;20116;-75
2022/11/01 02:18:58;;;;;;;3.45;1.35;;;15.50;72.70;;;;;;5018209;28;20033;-75
2022/11/01 02:22:00;;;;;;;4.85;1.50;;;15.30;72.80;;;;;;5026098;28;20037;-76
2022/11/01 02:24:49;;;;;;;5.63;1.45;;;15.20;73.10;;;;;;5017838;28;20042;-75
2022/11/01 02:27:41;;;;;;;5.32;1.65;;;15.20;72.60;;;;;;5020620;28;20055;-75
2022/11/01 02:30:17;;;;;;;5.78;1.52;;;15.10;72.10;;;;;;5019848;28;20060;-75
2022/11/01 02:32:47;;;;;;;4.22;1.30;;;15.10;71.30;;;;;;5019739;28;20041;-75
2022/11/01 02:35:23;;;;;;;7.07;1.58;;;15.10;71.80;;;;;;5016901;28;20576;-75
2022/11/01 02:38:22;;;;;;;4.55;1.52;;;15.00;72.10;;;;;;5019709;28;20045;-74
2022/11/01 02:40:53;;;;;;;8.15;1.48;;;15.00;72.20;;;;;;5017365;28;20096;-74
2022/11/01 02:43:25;;;;;;;9.80;1.77;;;15.00;72.20;;;;;;5019734;28;20040;-75
2022/11/01 02:45:51;;;;;;;7.35;1.63;;;15.00;72.70;;;;;;5020822;28;20052;-75
2022/11/01 02:48:19;;;;;;;9.50;1.80;;;14.90;72.90;;;;;;5023854;28;20377;-75
2022/11/01 02:50:53;;;;;;;8.93;1.63;;;14.90;72.60;;;;;;5022504;28;20029;-75
2022/11/01 02:53:19;;;;;;;6.45;1.38;;;14.80;72.40;;;;;;5020406;28;20040;-74
2022/11/01 02:55:45;;;;;;;6.32;1.50;;;14.90;71.70;;;;;;5013879;28;20333;-74
2022/11/01 02:58:22;;;;;;;5.45;1.20;;;14.80;71.70;;;;;;5021805;28;20500;-75
2022/11/01 03:00:48;;;;;;;5.45;1.23;;;14.80;71.30;;;;;;5011702;28;20462;-75
2022/11/01 03:03:29;;;;;;;7.20;1.75;;;14.80;71.30;;;;;;5016984;28;20113;-76
2022/11/01 03:06:04;;;;;;;6.15;1.60;;;14.80;71.00;;;;;;5016550;28;20034;-76
2022/11/01 03:08:58;;;;;;;5.22;1.33;;;14.80;71.20;;;;;;5015941;28;20180;-76
2022/11/01 03:11:39;;;;;;;6.18;1.60;;;14.60;71.60;;;;;;5018333;28;20490;-76
2022/11/01 03:14:22;;;;;;;6.53;1.40;;;14.60;71.40;;;;;;5019866;28;20029;-75
2022/11/01 03:16:58;;;;;;;8.00;1.50;;;14.60;71.10;;;;;;5022062;28;20021;-76
2022/11/01 03:19:46;;;;;;;7.57;1.80;;;14.60;70.90;;;;;;5033317;28;20124;-76
2022/11/01 03:22:38;;;;;;;8.68;1.42;;;14.50;70.60;;;;;;5015189;28;20033;-76
2022/11/01 03:25:38;;;;;;;5.78;1.50;;;14.50;70.60;;;;;;5011560;28;20030;-76
2022/11/01 03:28:14;;;;;;;6.43;1.25;;;14.40;70.90;;;;;;5018501;28;20033;-76
2022/11/01 03:30:44;;;;;;;5.97;1.33;;;14.40;71.20;;;;;;5016827;28;20159;-77
2022/11/01 03:33:13;;;;;;;6.45;1.60;;;14.40;70.00;;;;;;5021357;28;20568;-76
2022/11/01 03:35:41;;;;;;;5.80;1.80;;;14.40;70.80;;;;;;5021480;28;20029;-76
2022/11/01 03:38:12;;;;;;;7.55;2.00;;;14.40;70.60;;;;;;5015906;28;20028;-76
2022/11/01 03:40:43;;;;;;;11.35;2.25;;;14.30;70.50;;;;;;5020211;28;20046;-75
2022/11/01 03:43:11;;;;;;;10.07;1.63;;;14.20;69.60;;;;;;5022378;28;20028;-76
2022/11/01 03:45:39;;;;;;;15.05;2.22;;;14.10;69.00;;;;;;5019758;28;20107;-76
2022/11/01 03:48:05;;;;;;;7.85;2.08;;;14.10;69.40;;;;;;5015949;28;20029;-75
2022/11/01 03:50:32;;;;;;;12.07;2.92;;;14.10;69.00;;;;;;5017678;28;20049;-76
2022/11/01 03:52:57;;;;;;;11.40;2.47;;;14.10;69.30;;;;;;5018293;28;20036;-76
2022/11/01 03:55:24;;;;;;;12.55;2.08;;;14.00;69.60;;;;;;5016647;28;20034;-76
2022/11/01 03:57:57;;;;;;;10.90;2.38;;;13.90;69.50;;;;;;5017571;28;20045;-76
2022/11/01 04:00:31;;;;;;;9.45;2.22;;;13.90;69.70;;;;;;5016506;28;20042;-77
2022/11/01 04:02:58;;;;;;;11.88;2.20;;;13.80;69.40;;;;;;5019958;28;20073;-76
2022/11/01 04:05:26;;;;;;;13.75;2.60;;;13.80;69.40;;;;;;5020283;28;20470;-76
2022/11/01 04:07:52;;;;;;;10.48;2.35;;;13.70;69.50;;;;;;5013491;28;20359;-75
2022/11/01 04:10:19;;;;;;;13.27;2.33;;;13.60;69.60;;;;;;5018979;28;20036;-75
2022/11/01 04:12:46;;;;;;;12.88;2.60;;;13.60;69.40;;;;;;5012462;28;20410;-75
2022/11/01 04:21:06;;;;;;;10.35;2.20;;;13.60;69.60;;;;;;5012292;28;20056;-75
2022/11/01 04:23:32;;;;;;;10.10;2.60;;;13.50;69.70;;;;;;5013316;28;20097;-75
2022/11/01 04:25:58;;;;;;;11.07;2.25;;;13.50;69.80;;;;;;5017017;28;20482;-76
2022/11/01 04:28:23;;;;;;;10.07;2.35;;;13.40;69.90;;;;;;5015391;28;20112;-75
2022/11/01 04:30:49;;;;;;;8.35;2.05;;;13.30;70.20;;;;;;5011729;28;20057;-74
2022/11/01 04:33:15;;;;;;;8.23;2.10;;;13.30;70.40;;;;;;5013553;28;20030;-74
2022/11/01 04:35:40;;;;;;;10.75;2.17;;;13.40;70.30;;;;;;5016945;28;20427;-75
2022/11/01 04:38:07;;;;;;;13.27;2.22;;;13.40;70.30;;;;;;5015840;28;20044;-75
2022/11/01 04:40:33;;;;;;;11.05;2.38;;;13.40;70.80;;;;;;5018966;28;20045;-74
2022/11/01 04:42:59;;;;;;;10.63;2.05;;;13.40;70.90;;;;;;5018801;28;20041;-75
2022/11/01 04:45:24;;;;;;;10.85;2.25;;;13.30;71.00;;;;;;5020131;28;20484;-75
2022/11/01 04:48:15;;;;;;;12.48;2.60;;;13.30;71.50;;;;;;5018624;28;20124;-74
2022/11/01 04:50:41;;;;;;;12.73;2.35;;;13.20;71.70;;;;;;5013168;28;20046;-75
2022/11/01 04:53:10;;;;;;;12.60;2.60;;;13.20;72.00;;;;;;5021159;28;20026;-75
2022/11/01 04:55:35;;;;;;;15.70;2.80;;;13.10;72.00;;;;;;5014921;28;20412;-75
2022/11/01 04:58:02;;;;;;;12.10;2.80;;;13.10;72.00;;;;;;5017501;28;20121;-75
2022/11/01 05:00:27;;;;;;;12.85;2.50;;;13.10;72.00;;;;;;5019595;28;20041;-75
2022/11/01 05:03:03;;;;;;;12.25;2.70;;;13.10;72.00;;;;;;5015274;28;20033;-75
2022/11/01 05:05:29;;;;;;;9.90;2.80;;;13.10;71.90;;;;;;5010780;28;20025;-75
2022/11/01 05:08:02;;;;;;;16.45;2.70;;;13.10;71.80;;;;;;5013722;28;20037;-75
2022/11/01 05:10:28;;;;;;;11.80;2.30;;;13.00;72.10;;;;;;5019448;28;20037;-75
2022/11/01 05:12:54;;;;;;;12.68;2.97;;;13.00;72.00;;;;;;5015881;28;20040;-74
2022/11/01 05:15:19;;;;;;;10.18;2.58;;;13.00;71.80;;;;;;5017440;28;20064;-75
2022/11/01 05:17:45;;;;;;;12.38;2.63;;;13.00;72.10;;;;;;5016208;28;20342;-75
2022/11/01 05:20:10;;;;;;;13.70;3.10;;;12.90;72.30;;;;;;5017237;28;20026;-75
2022/11/01 05:22:36;;;;;;;12.05;2.38;;;12.80;72.50;;;;;;5014268;28;20187;-75
2022/11/01 05:25:02;;;;;;;10.05;3.05;;;12.90;72.70;;;;;;5012764;28;20045;-75
2022/11/01 05:27:28;;;;;;;11.95;2.70;;;12.90;72.80;;;;;;5016273;28;20037;-74
2022/11/01 05:29:53;;;;;;;13.52;2.58;;;12.90;73.00;;;;;;5011998;28;20076;-75
2022/11/01 05:32:19;;;;;;;11.30;2.65;;;12.80;73.50;;;;;;5019389;28;20521;-75
2022/11/01 05:34:45;;;;;;;14.10;2.80;;;12.70;73.80;;;;;;5018332;28;20042;-74
2022/11/01 05:37:11;;;;;;;14.88;3.03;;;12.70;74.00;;;;;;5015503;28;20091;-75
2022/11/01 05:39:37;;;;;;;13.77;2.40;;;12.70;74.20;;;;;;5018200;28;20045;-75
2022/11/01 05:42:02;;;;;;;17.27;3.10;;;12.60;74.40;;;;;;5017011;28;20080;-75
2022/11/01 05:44:28;;;;;;;13.20;2.50;;;12.60;74.50;;;;;;5017707;28;20107;-75
2022/11/01 05:46:54;;;;;;;14.38;2.92;;;12.60;74.60;;;;;;5019457;28;20587;-74
2022/11/01 05:49:21;;;;;;;14.27;2.78;;;12.60;74.70;;;;;;5011793;28;20037;-75
2022/11/01 05:51:46;;;;;;;14.90;2.70;;;12.60;75.10;;;;;;5018593;28;20125;-75
2022/11/01 05:54:12;;;;;;;17.00;3.10;;;12.60;75.00;;;;;;5018245;28;20049;-75
2022/11/01 05:56:38;;;;;;;15.60;2.85;;;12.50;75.30;;;;;;5017137;28;20033;-75
2022/11/01 05:59:04;;;;;;;15.35;3.33;;;12.40;75.30;;;;;;5015131;28;20072;-76
2022/11/01 06:01:29;;;;;;;12.43;2.55;;;12.40;75.30;;;;;;5017919;28;20521;-75
2022/11/01 06:04:00;;;;;;;13.70;2.75;;;12.30;75.50;;;;;;5016753;28;20029;-75
2022/11/01 06:06:29;;;;;;;15.90;3.03;;;12.30;75.50;;;;;;5016693;28;20049;-75
2022/11/01 06:08:56;;;;;;;11.23;2.78;;;12.20;75.60;;;;;;5016178;28;20628;-75
2022/11/01 06:11:22;;;;;;;14.45;3.20;;;12.30;75.60;;;;;;5016649;28;20048;-75
2022/11/01 06:13:55;;;;;;;13.73;3.53;;;12.20;75.70;;;;;;5016286;28;20072;-75
2022/11/01 06:16:21;;;;;;;14.57;3.22;;;12.20;75.60;;;;;;5023762;28;20392;-76
2022/11/01 06:18:48;;;;;;;12.52;3.38;;;12.20;75.80;;;;;;5021645;28;20623;-75
2022/11/01 06:21:14;;;;;;;15.93;3.22;;;12.20;75.80;;;;;;5019532;28;20033;-75
2022/11/01 06:23:40;;;;;;;15.60;2.88;;;12.20;75.90;;;;;;5022532;28;20219;-75
2022/11/01 06:26:06;;;;;;;16.58;3.38;;;12.20;76.10;;;;;;5018243;28;20196;-75
2022/11/01 06:28:32;;;;;;;14.38;3.25;;;12.30;75.90;;;;;;5026207;28;20522;-75
2022/11/01 06:31:02;;;;;;;14.90;2.63;;;12.30;75.80;;;;;;5025676;28;20025;-75
2022/11/01 06:33:28;;;;;;;13.38;3.15;;;12.30;75.90;;;;;;5021263;28;20036;-75
2022/11/01 06:35:53;;;;;;;17.05;3.40;;;12.30;76.00;;;;;;5022870;28;20465;-74
2022/11/01 06:38:19;;;;;;;15.10;2.90;;;12.20;76.30;;;;;;5020610;28;20543;-74
2022/11/01 06:40:45;;;;;;;14.55;2.72;;;12.10;76.40;;;;;;5021236;28;20049;-74
2022/11/01 06:43:11;;;;;;;10.85;2.47;;;12.20;76.70;;;;;;5019860;28;20061;-75
2022/11/01 06:45:37;;;;;;;13.13;3.00;;;12.20;76.50;;;;;;5020090;28;20758;-75
2022/11/01 06:48:03;;;;;;;13.32;3.30;;;12.30;76.60;;;;;;5017276;28;20122;-75
2022/11/01 06:50:29;;;;;;;15.38;2.78;;;12.30;76.60;;;;;;5017022;28;20043;-74
2022/11/01 06:52:56;;;;;;;12.90;2.45;;;12.20;76.60;;;;;;5011633;28;20037;-76
2022/11/01 06:55:22;;;;;;;11.90;2.35;;;12.20;76.80;;;;;;5017339;28;20080;-75
2022/11/01 06:57:56;;;;;;;10.95;2.75;;;12.20;76.70;;;;;;5016578;28;20109;-77
2022/11/01 07:00:22;;;;;;;14.95;2.63;;;12.20;76.70;;;;;;5016558;28;20041;-74
2022/11/01 07:02:47;;;;;;;15.27;3.25;;;12.10;76.90;;;;;;5021179;28;20091;-77
2022/11/01 07:05:13;;;;;;;14.10;3.05;;;12.10;77.10;;;;;;5023711;28;20029;-77
2022/11/01 07:07:40;;;;;;;16.17;3.13;;;12.10;76.90;;;;;;5018180;28;20515;-77
2022/11/01 07:10:07;;;;;;;13.50;3.42;;;12.10;77.10;;;;;;5022884;28;20461;-77
2022/11/01 07:12:33;;;;;;;15.52;3.13;;;12.10;77.30;;;;;;5023138;28;20177;-77
2022/11/01 07:14:58;;;;;;;15.60;3.25;;;12.10;77.30;;;;;;5018611;28;20545;-77
2022/11/01 07:17:25;;;;;;;11.07;2.55;;;12.10;77.30;;;;;;5021092;28;20093;-77
2022/11/01 07:19:50;;;;;;;17.20;3.88;;;12.10;77.50;;;;;;5016725;28;20029;-77
2022/11/01 07:22:16;;;;;;;14.55;2.72;;;12.10;77.50;;;;;;5019967;28;20353;-76
2022/11/01 07:24:42;;;;;;;18.50;3.55;;;12.20;77.40;;;;;;5021013;28;20021;-77
2022/11/01 07:27:07;;;;;;;14.00;2.67;;;12.10;77.30;;;;;;5020541;28;20029;-77
2022/11/01 07:29:33;;;;;;;17.75;3.17;;;12.20;77.20;;;;;;5021097;28;20454;-77
2022/11/01 07:31:59;;;;;;;14.30;3.28;;;12.20;77.00;;;;;;5017982;28;20045;-77
2022/11/01 07:34:25;;;;;;;14.65;2.72;;;12.10;77.30;;;;;;5019320;28;20033;-77
2022/11/01 07:36:51;;;;;;;17.40;3.60;;;12.10;77.20;;;;;;5019162;28;20037;-77
2022/11/01 07:39:17;;;;;;;14.93;3.55;;;12.10;77.40;;;;;;5020654;28;20390;-77
2022/11/01 07:41:42;;;;;;;17.30;2.75;;;12.10;77.50;;;;;;5018950;28;20073;-78
2022/11/01 07:44:08;;;;;;;13.15;3.13;;;12.20;77.50;;;;;;5017736;28;20160;-77
2022/11/01 07:46:34;;;;;;;19.63;3.28;;;12.20;77.40;;;;;;5015606;28;20033;-77
2022/11/01 07:48:59;;;;;;;18.50;3.30;;;12.20;77.40;;;;;;5011627;28;20410;-77
2022/11/01 07:51:25;;;;;;;18.08;3.53;;;12.20;77.60;;;;;;5013702;28;20116;-76
2022/11/01 07:53:50;;;;;;;14.52;2.88;;;12.20;77.50;;;;;;5017519;28;20120;-77
2022/11/01 07:56:16;;;;;;;18.88;3.47;;;12.20;77.20;;;;;;5015970;28;20041;-77
2022/11/01 07:58:42;;;;;;;13.25;3.33;;;12.20;77.30;;;;;;5020511;28;20355;-76
2022/11/01 08:01:09;;;;;;;16.30;3.05;;;12.20;77.30;;;;;;5017931;28;20166;-77
2022/11/01 08:03:34;;;;;;;12.20;2.80;;;12.30;77.10;;;;;;5018945;28;20056;-77
2022/11/01 08:06:00;;;;;;;18.50;3.60;;;12.40;77.10;;;;;;5024936;28;20142;-77
2022/11/01 08:08:26;;;;;;;19.40;3.90;;;12.40;76.70;;;;;;5019525;28;20041;-77
2022/11/01 08:10:51;;;;;;;16.30;3.28;;;12.50;76.70;;;;;;5016071;28;20128;-77
2022/11/01 08:13:22;;;;;;;17.88;3.25;;;12.50;76.70;;;;;;5019772;28;20036;-77
2022/11/01 08:15:49;;;;;;;15.35;2.83;;;12.60;76.90;;;;;;5022698;28;20091;-77
2022/11/01 08:18:17;;;;;;;16.27;3.45;;;12.60;76.50;;;;;;5019650;28;20029;-78
2022/11/01 08:20:43;;;;;;;16.58;3.17;;;12.70;76.20;;;;;;5014586;28;20474;-77
2022/11/01 08:23:10;;;;;;;13.60;3.38;;;12.70;75.90;;;;;;5016949;28;20137;-77
2022/11/01 08:25:35;;;;;;;15.20;3.17;;;12.90;75.50;;;;;;5017682;28;20067;-75
2022/11/01 08:28:03;;;;;;;13.13;3.35;;;13.00;75.10;;;;;;5019818;28;20529;-76
2022/11/01 08:30:29;;;;;;;15.35;2.90;;;13.10;75.10;;;;;;5015519;28;20056;-77
2022/11/01 08:33:01;;;;;;;13.80;2.75;;;13.30;74.60;;;;;;5011462;28;20045;-77
2022/11/01 08:35:28;;;;;;;12.93;2.90;;;13.30;74.10;;;;;;5021557;28;20030;-77
2022/11/01 08:37:54;;;;;;;13.57;3.08;;;13.40;74.00;;;;;;5013709;28;20064;-76
2022/11/01 08:40:20;;;;;;;17.63;3.15;;;13.50;73.60;;;;;;5017560;28;20316;-77
2022/11/01 08:42:47;;;;;;;14.68;4.00;;;13.60;73.40;;;;;;5016592;28;20037;-76
2022/11/01 08:45:14;;;;;;;14.38;3.35;;;13.80;73.10;;;;;;5020508;28;20417;-77
2022/11/01 08:47:40;;;;;;;16.35;3.30;;;13.90;72.70;;;;;;5020487;28;20045;-77
2022/11/01 08:50:07;;;;;;;14.70;2.85;;;14.00;72.30;;;;;;5017219;28;20037;-77
2022/11/01 08:52:33;;;;;;;14.25;3.33;;;14.10;72.30;;;;;;5018934;28;20045;-77
2022/11/01 08:54:59;;;;;;;15.43;3.03;;;14.20;71.40;;;;;;5013102;28;20038;-77
2022/11/01 08:57:25;;;;;;;11.43;2.67;;;14.20;71.70;;;;;;5012716;28;20112;-77
2022/11/01 08:59:50;;;;;;;12.93;3.47;;;14.30;71.10;;;;;;5016467;28;20592;-77
2022/11/01 09:02:16;;;;;;;11.95;3.08;;;14.30;71.30;;;;;;5021641;28;20369;-77
2022/11/01 09:04:41;;;;;;;13.70;2.72;;;14.40;71.10;;;;;;5017303;28;20099;-75
2022/11/01 09:07:07;;;;;;;13.90;2.67;;;14.50;71.00;;;;;;5016107;28;20091;-75
2022/11/01 09:09:33;;;;;;;16.88;3.63;;;14.60;70.50;;;;;;5022307;28;20072;-75
2022/11/01 09:11:58;;;;;;;15.07;3.13;;;14.60;70.20;;;;;;5019826;28;20041;-75
2022/11/01 09:14:25;;;;;;;13.90;2.60;;;14.70;70.30;;;;;;5014210;28;20083;-76
2022/11/01 09:16:51;;;;;;;18.13;3.47;;;14.80;70.40;;;;;;5025693;28;20433;-75
2022/11/01 09:19:17;;;;;;;14.43;3.17;;;14.80;70.00;;;;;;5012572;28;20374;-76
2022/11/01 09:21:44;;;;;;;14.40;3.50;;;14.80;69.90;;;;;;5020175;28;20128;-75
2022/11/01 09:24:14;;;;;;;13.05;2.53;;;14.90;70.00;;;;;;5016367;28;20037;-74
2022/11/01 09:26:40;;;;;;;13.43;3.60;;;15.00;69.20;;;;;;5019448;28;20553;-75
2022/11/01 09:29:06;;;;;;;15.90;3.05;;;15.00;69.70;;;;;;5014174;28;20053;-75
2022/11/01 09:31:32;;;;;;;14.30;3.05;;;15.10;69.00;;;;;;5017938;28;20556;-75
2022/11/01 09:33:59;;;;;;;16.27;3.20;;;15.10;69.00;;;;;;5020075;28;20028;-75
2022/11/01 09:36:26;;;;;;;12.27;2.65;;;15.10;68.60;;;;;;5022522;28;20038;-75
2022/11/01 09:38:53;;;;;;;10.57;2.50;;;15.10;68.40;;;;;;5015802;28;20183;-75
2022/11/01 09:41:30;;;;;;;15.48;3.17;;;15.10;69.10;;;;;;5014523;28;20041;-75
2022/11/01 09:43:58;;;;;;;11.98;2.75;;;15.20;69.20;;;;;;5015830;28;20057;-75
2022/11/01 09:46:30;;;;;;;14.20;2.95;;;15.20;69.00;;;;;;5017577;28;20065;-75
2022/11/01 09:48:58;;;;;;;17.77;3.65;;;15.40;69.00;;;;;;5015928;28;20084;-76
2022/11/01 09:51:24;;;;;;;15.70;2.80;;;15.40;68.90;;;;;;5024928;28;20045;-75
2022/11/01 09:53:53;;;;;;;15.55;3.55;;;15.50;68.80;;;;;;5028908;28;21426;-76
2022/11/01 09:56:39;;;;;;;13.15;3.10;;;15.40;68.20;;;;;;5019882;28;20375;-75
2022/11/01 09:59:25;;;;;;;14.50;2.80;;;15.50;68.50;;;;;;5013281;28;20469;-75
2022/11/01 10:02:41;;;;;;;13.25;3.22;;;15.60;68.80;;;;;;5021768;28;20052;-75
2022/11/01 10:05:16;;;;;;;15.10;3.17;;;15.80;68.20;;;;;;4980697;28;20038;-75
2022/11/01 10:07:53;;;;;;;13.75;2.85;;;15.70;67.90;;;;;;4980618;28;20341;-76
2022/11/01 10:10:37;;;;;;;16.08;3.70;;;15.60;68.00;;;;;;5004966;28;20043;-75
2022/11/01 10:13:30;;;;;;;16.73;3.40;;;15.80;68.20;;;;;;5019000;28;20112;-75
2022/11/01 10:16:06;;;;;;;16.90;3.42;;;16.00;67.90;;;;;;5022327;28;20041;-75
2022/11/01 10:19:01;;;;;;;12.32;2.70;;;16.00;67.70;;;;;;5020726;28;20421;-76
2022/11/01 10:21:35;;;;;;;12.23;2.90;;;16.10;67.40;;;;;;4995426;28;20103;-75
2022/11/01 10:24:06;;;;;;;17.98;3.78;;;16.10;67.60;;;;;;5023056;28;20120;-76
2022/11/01 10:26:32;;;;;;;12.30;2.95;;;16.10;67.50;;;;;;5024287;28;20059;-75
2022/11/01 10:29:14;;;;;;;19.85;4.10;;;16.10;67.60;;;;;;5018520;28;20433;-75
2022/11/01 10:31:44;;;;;;;14.02;3.33;;;16.30;67.10;;;;;;5015397;28;20048;-75
2022/11/01 10:34:17;;;;;;;12.95;3.03;;;16.30;67.40;;;;;;5018583;28;20042;-75
2022/11/01 10:36:45;;;;;;;11.35;2.30;;;16.20;66.70;;;;;;5017573;28;20452;-76
2022/11/01 10:39:14;;;;;;;11.23;2.60;;;16.20;66.60;;;;;;5019345;28;20037;-76
2022/11/01 10:41:45;;;;;;;14.60;3.25;;;16.20;66.90;;;;;;5021323;28;20041;-77
2022/11/01 10:44:30;;;;;;;17.67;4.38;;;16.30;67.00;;;;;;5021090;28;20033;-77
2022/11/01 10:47:01;;;;;;;13.07;3.03;;;16.30;66.40;;;;;;5017813;28;20049;-77
2022/11/01 10:49:39;;;;;;;15.48;3.20;;;16.40;66.50;;;;;;5019404;28;20161;-78
2022/11/01 10:52:08;;;;;;;13.15;3.08;;;16.50;66.00;;;;;;5021722;28;20053;-77
2022/11/01 10:54:38;;;;;;;15.73;3.75;;;16.40;65.90;;;;;;5020575;28;20030;-77
2022/11/01 10:57:15;;;;;;;11.75;2.78;;;16.50;65.90;;;;;;5020402;28;20329;-76
2022/11/01 10:59:45;;;;;;;12.60;2.53;;;16.50;66.10;;;;;;5010964;28;20048;-77
2022/11/01 11:02:32;;;;;;;12.77;3.20;;;16.60;65.90;;;;;;5016457;28;20056;-76
2022/11/01 11:04:58;;;;;;;11.95;3.30;;;16.70;65.30;;;;;;5018071;28;20053;-76
2022/11/01 11:07:29;;;;;;;16.52;3.17;;;16.70;65.00;;;;;;5018134;28;20076;-76
2022/11/01 11:09:55;;;;;;;11.07;2.92;;;16.80;64.60;;;;;;5024859;28;20445;-76
2022/11/01 11:12:23;;;;;;;11.80;2.67;;;16.90;64.90;;;;;;5020030;28;20255;-76
2022/11/01 11:15:09;;;;;;;15.13;3.40;;;17.00;64.40;;;;;;5021060;28;20037;-76
2022/11/01 11:17:41;;;;;;;11.70;2.75;;;17.00;64.40;;;;;;5020706;28;20321;-76
2022/11/01 11:20:11;;;;;;;11.45;2.72;;;16.90;64.10;;;;;;5022582;28;20034;-76
2022/11/01 11:22:41;;;;;;;12.05;3.20;;;17.00;64.70;;;;;;5017698;28;20591;-76
2022/11/01 11:25:18;;;;;;;14.38;2.60;;;17.00;64.20;;;;;;5018424;28;20102;-75
2022/11/01 11:27:47;;;;;;;13.85;2.60;;;17.00;64.30;;;;;;5019039;28;20064;-75
2022/11/01 11:30:26;;;;;;;16.23;2.97;;;17.00;64.90;;;;;;5019040;28;20377;-75
2022/11/01 11:32:52;;;;;;;11.52;2.88;;;17.10;64.70;;;;;;5018501;28;20490;-75
2022/11/01 11:35:26;;;;;;;10.98;2.65;;;17.20;64.10;;;;;;5017557;28;20366;-76
2022/11/01 11:37:57;;;;;;;14.33;3.63;;;17.30;64.00;;;;;;5013140;28;20460;-78
2022/11/01 11:40:26;;;;;;;15.63;2.67;;;17.40;63.20;;;;;;5020865;28;20289;-76
2022/11/01 11:43:21;;;;;;;14.52;3.25;;;17.30;63.70;;;;;;5017965;28;20088;-76
2022/11/01 11:46:23;;;;;;;13.75;2.65;;;17.30;62.90;;;;;;5021494;28;20071;-76
2022/11/01 11:49:05;;;;;;;11.52;2.88;;;17.40;63.20;;;;;;4975260;28;20035;-76
2022/11/01 11:51:37;;;;;;;9.65;2.00;;;17.50;63.60;;;;;;5010090;28;20029;-76
2022/11/01 11:54:11;;;;;;;11.07;2.80;;;17.40;63.00;;;;;;5017727;28;20135;-75
2022/11/01 11:56:38;;;;;;;12.90;2.50;;;17.30;63.00;;;;;;5013968;28;20128;-76
2022/11/01 11:59:15;;;;;;;13.48;2.70;;;17.20;63.00;;;;;;5016947;28;20397;-75
2022/11/01 12:01:40;;;;;;;15.35;3.10;;;17.20;63.20;;;;;;5021451;28;20063;-76
2022/11/01 12:04:12;;;;;;;12.35;3.28;;;17.30;63.40;;;;;;5018743;28;20022;-76
2022/11/01 12:06:41;;;;;;;16.00;3.08;;;17.50;62.80;;;;;;5022072;28;20369;-75
2022/11/01 12:09:45;;;;;;;12.98;2.40;;;17.60;63.50;;;;;;5020068;28;20060;-75
2022/11/01 12:12:25;;;;;;;11.70;2.45;;;17.50;62.10;;;;;;5010415;28;20030;-76
2022/11/01 12:14:51;;;;;;;10.50;2.80;;;17.50;62.30;;;;;;5010619;28;20523;-75
2022/11/01 12:17:26;;;;;;;11.93;2.47;;;17.50;62.50;;;;;;5020379;28;20060;-75
2022/11/01 12:19:57;;;;;;;;;;;17.60;63.20;;;;;;5014016;28;20065;-75
2022/11/01 12:22:23;;;;;;;11.85;3.28;;;17.60;62.40;;;;;;5016250;28;19963;-75
2022/11/01 12:24:51;;;;;;;13.85;2.95;;;17.60;62.00;;;;;;5015963;28;20144;-75
2022/11/01 12:27:21;;;;;;;12.35;2.88;;;17.50;62.00;;;;;;5016229;28;20104;-75
2022/11/01 12:29:51;;;;;;;9.95;2.47;;;17.60;61.90;;;;;;5023402;28;20132;-75
2022/11/01 12:32:23;;;;;;;12.80;2.40;;;17.50;61.90;;;;;;5017628;28;20450;-75
2022/11/01 12:34:52;;;;;;;12.48;2.63;;;17.40;61.80;;;;;;5019530;28;20038;-74
2022/11/01 12:37:45;;;;;;;10.70;2.33;;;17.40;62.10;;;;;;5016056;28;20425;-75
2022/11/01 12:40:34;;;;;;;12.05;2.25;;;17.40;61.80;;;;;;5016100;28;20159;-75
2022/11/01 12:43:39;;;;;;;14.55;3.10;;;17.40;61.60;;;;;;5016658;28;20152;-75
2022/11/01 12:46:12;;;;;;;10.40;2.30;;;17.40;62.60;;;;;;5015124;28;20156;-75
2022/11/01 12:49:11;;;;;;;9.77;2.30;;;17.60;62.40;;;;;;5015521;28;20636;-75
2022/11/01 12:51:45;;;;;;;12.77;3.15;;;17.50;62.40;;;;;;5007853;28;20417;-75
2022/11/01 12:54:13;;;;;;;;;;;17.30;62.90;;;;;;5011568;28;20037;-75
2022/11/01 12:56:39;;;;;;;12.00;2.45;;;17.40;63.30;;;;;;5014953;28;19978;-74
2022/11/01 12:59:05;;;;;;;12.23;2.60;;;17.50;63.00;;;;;;5016028;28;20057;-75
2022/11/01 13:01:38;;;;;;;10.15;2.00;;;17.60;62.80;;;;;;5012751;28;20041;-75
2022/11/01 13:04:14;;;;;;;12.02;2.58;;;17.60;63.20;;;;;;5015468;28;20079;-75